createdAt,value
2023-01-19T00:02:48.269Z,98900.94
2023-01-19T00:05:51.578Z,98895.06
2023-01-19T00:08:54.582Z,98900.59
2023-01-19T00:11:57.438Z,98894.81
2023-01-19T00:15:00.256Z,98915.09
2023-01-19T00:18:03.135Z,98919.69
2023-01-19T00:21:06.028Z,98923.50
2023-01-19T00:24:10.299Z,98905.66
2023-01-19T00:27:13.015Z,98892.25
2023-01-19T00:30:16.667Z,98899.22
2023-01-19T00:33:19.452Z,98901.22
2023-01-19T00:36:22.331Z,98912.50
2023-01-19T00:39:25.123Z,98915.94
2023-01-19T00:42:46.091Z,98908.16
2023-01-19T00:45:49.018Z,98915.84
2023-01-19T00:48:51.868Z,98920.50
2023-01-19T00:51:54.915Z,98929.22
2023-01-19T00:54:57.853Z,98932.38
2023-01-19T00:58:00.682Z,98931.03
2023-01-19T01:01:04.918Z,98926.00
2023-01-19T01:04:07.946Z,98919.03
2023-01-19T01:07:10.714Z,98919.03
2023-01-19T01:10:18.451Z,98925.78
2023-01-19T01:13:23.652Z,98949.63
2023-01-19T01:16:28.321Z,98948.16
2023-01-19T01:19:31.838Z,98954.94
2023-01-19T01:22:34.611Z,98953.22
2023-01-19T01:25:38.785Z,98954.44
2023-01-19T01:28:41.639Z,98974.75
2023-01-19T01:31:44.544Z,99010.91
2023-01-19T01:34:47.292Z,99012.38
2023-01-19T01:37:50.036Z,99011.16
2023-01-19T01:40:52.999Z,99008.28
2023-01-19T01:44:01.935Z,98997.19
2023-01-19T01:47:04.989Z,98983.47
2023-01-19T01:50:16.655Z,98966.94
2023-01-19T01:53:19.673Z,98955.84
2023-01-19T01:56:28.916Z,98949.25
2023-01-19T01:59:39.299Z,98965.44
2023-01-19T02:02:51.625Z,98960.59
2023-01-19T02:05:59.492Z,98981.44
2023-01-19T02:09:29.721Z,99002.09
2023-01-19T02:12:51.514Z,98986.50
2023-01-19T02:15:58.567Z,98985.91
2023-01-19T02:19:01.465Z,99003.09
2023-01-19T02:22:07.355Z,99004.72
2023-01-19T02:25:10.453Z,99011.44
2023-01-19T02:28:14.032Z,98999.88
2023-01-19T02:31:17.982Z,98993.13
2023-01-19T02:34:21.737Z,99005.66
2023-01-19T02:37:25.470Z,99014.09
2023-01-19T02:40:28.758Z,99006.38
2023-01-19T02:43:33.362Z,99008.38
2023-01-19T02:46:36.930Z,98993.81
2023-01-19T02:49:39.863Z,98994.47
2023-01-19T02:52:42.609Z,98982.84
2023-01-19T02:55:54.187Z,98995.13
2023-01-19T02:59:23.585Z,99028.84
2023-01-19T03:02:53.819Z,99007.84
2023-01-19T03:06:25.768Z,99025.34
2023-01-19T03:09:47.978Z,99044.06
2023-01-19T03:13:11.225Z,99040.34
2023-01-19T03:16:44.430Z,99019.09
2023-01-19T03:19:49.761Z,99016.44
2023-01-19T03:23:00.848Z,99003.25
2023-01-19T03:26:06.686Z,99007.78
2023-01-19T03:29:13.909Z,99019.28
2023-01-19T03:32:21.049Z,99018.53
2023-01-19T03:35:26.526Z,99026.19
2023-01-19T03:38:35.256Z,99032.19
2023-01-19T03:41:39.937Z,99029.06
2023-01-19T03:44:45.531Z,99023.56
2023-01-19T03:47:49.198Z,99024.59
2023-01-19T03:50:53.319Z,99025.03
2023-01-19T03:53:56.098Z,99010.69
2023-01-19T03:56:58.946Z,99013.84
2023-01-19T04:00:01.827Z,99019.19
2023-01-19T04:03:17.209Z,99011.94
2023-01-19T04:06:21.838Z,99004.69
2023-01-19T04:09:25.864Z,99011.56
2023-01-19T04:12:28.819Z,99027.50
2023-01-19T04:15:32.545Z,99027.50
2023-01-19T04:18:36.030Z,99029.75
2023-01-19T04:21:39.216Z,99020.47
2023-01-19T04:24:42.002Z,99026.00
2023-01-19T04:27:44.791Z,99032.94
2023-01-19T04:30:51.051Z,99039.78
2023-01-19T04:33:53.852Z,99046.13
2023-01-19T04:36:56.648Z,99048.72
2023-01-19T04:39:59.572Z,99051.34
2023-01-19T04:43:02.794Z,99056.66
2023-01-19T04:46:05.982Z,99050.97
2023-01-19T04:49:10.353Z,99051.25
2023-01-19T04:52:13.135Z,99028.22
2023-01-19T04:55:16.213Z,99014.78
2023-01-19T04:58:19.197Z,99036.09
2023-01-19T05:01:22.576Z,99065.75
2023-01-19T05:04:25.979Z,99078.22
2023-01-19T05:07:28.802Z,99066.13
2023-01-19T05:10:31.701Z,99069.59
2023-01-19T05:13:34.620Z,99081.09
2023-01-19T05:16:37.614Z,99071.25
2023-01-19T05:19:40.412Z,99079.16
2023-01-19T05:22:43.832Z,99075.91
2023-01-19T05:25:47.033Z,99066.84
2023-01-19T05:28:50.457Z,99064.19
2023-01-19T05:31:53.538Z,99077.97
2023-01-19T05:34:56.344Z,99077.19
2023-01-19T05:37:59.108Z,99082.72
2023-01-19T05:41:02.097Z,99085.13
2023-01-19T05:44:05.075Z,99073.78
2023-01-19T05:47:07.858Z,99056.38
2023-01-19T05:50:11.208Z,99045.09
2023-01-19T05:53:13.985Z,99060.50
2023-01-19T05:56:16.818Z,99069.38
2023-01-19T05:59:24.262Z,99086.59
2023-01-19T06:02:30.277Z,99079.72
2023-01-19T06:05:33.282Z,99092.28
2023-01-19T06:08:36.722Z,99096.16
2023-01-19T06:11:39.535Z,99110.06
2023-01-19T06:14:42.347Z,99121.78
2023-01-19T06:17:45.163Z,99132.28
2023-01-19T06:20:47.895Z,99144.03
2023-01-19T06:23:50.640Z,99150.72
2023-01-19T06:26:53.847Z,99149.53
2023-01-19T06:29:56.919Z,99151.97
2023-01-19T06:33:00.111Z,99155.22
2023-01-19T06:36:03.928Z,99148.94
2023-01-19T06:39:06.852Z,99137.81
2023-01-19T06:42:10.275Z,99134.56
2023-01-19T06:45:13.010Z,99139.63
2023-01-19T06:48:15.961Z,99140.53
2023-01-19T06:51:18.851Z,99157.69
2023-01-19T06:54:22.965Z,99144.91
2023-01-19T06:57:26.299Z,99146.72
2023-01-19T07:00:29.936Z,99145.91
2023-01-19T07:03:34.913Z,99147.97
2023-01-19T07:06:37.868Z,99153.22
2023-01-19T07:09:43.118Z,99151.44
2023-01-19T07:12:47.814Z,99162.38
2023-01-19T07:15:53.597Z,99159.94
2023-01-19T07:18:56.495Z,99171.09
2023-01-19T07:21:59.698Z,99155.94
2023-01-19T07:25:02.787Z,99173.91
2023-01-19T07:28:07.347Z,99187.44
2023-01-19T07:31:11.519Z,99193.94
2023-01-19T07:34:15.581Z,99189.69
2023-01-19T07:37:18.465Z,99191.94
2023-01-19T07:40:23.328Z,99191.13
2023-01-19T07:43:27.239Z,99180.41
2023-01-19T07:46:30.179Z,99200.19
2023-01-19T07:49:35.644Z,99202.03
2023-01-19T07:52:38.570Z,99209.69
2023-01-19T07:55:41.385Z,99207.69
2023-01-19T07:58:44.352Z,99214.13
2023-01-19T08:01:47.373Z,99218.38
2023-01-19T08:04:50.355Z,99216.16
2023-01-19T08:07:54.205Z,99208.09
2023-01-19T08:11:05.588Z,99207.69
2023-01-19T08:14:11.125Z,99214.34
2023-01-19T08:17:14.193Z,99222.41
2023-01-19T08:20:17.295Z,99234.94
2023-01-19T08:23:20.356Z,99252.72
2023-01-19T08:26:34.817Z,99245.44
2023-01-19T08:29:37.957Z,99241.16
2023-01-19T08:32:40.914Z,99257.50
2023-01-19T08:35:47.699Z,99261.34
2023-01-19T08:38:50.935Z,99252.28
2023-01-19T08:41:54.090Z,99268.16
2023-01-19T08:44:58.825Z,99260.16
2023-01-19T08:48:02.488Z,99272.03
2023-01-19T08:51:05.381Z,99279.13
2023-01-19T08:54:08.303Z,99276.44
2023-01-19T08:57:12.212Z,99278.69
2023-01-19T09:00:15.527Z,99281.91
2023-01-19T09:03:19.959Z,99282.13
2023-01-19T09:06:25.813Z,99296.06
2023-01-19T09:09:31.887Z,99309.78
2023-01-19T09:12:35.004Z,99320.63
2023-01-19T09:15:40.097Z,99334.22
2023-01-19T09:18:46.225Z,99330.78
2023-01-19T09:21:49.581Z,99346.34
2023-01-19T09:24:53.008Z,99357.66
2023-01-19T09:27:56.385Z,99360.28
2023-01-19T09:31:00.182Z,99366.97
2023-01-19T09:34:04.573Z,99377.25
2023-01-19T09:37:33.428Z,99386.41
2023-01-19T09:40:54.917Z,99375.69
2023-01-19T09:44:00.390Z,99376.50
2023-01-19T09:47:13.677Z,99368.22
2023-01-19T09:50:25.150Z,99364.19
2023-01-19T09:53:55.833Z,99369.97
2023-01-19T09:56:59.951Z,99364.69
2023-01-19T10:00:14.881Z,99369.53
2023-01-19T10:03:20.872Z,99361.81
2023-01-19T10:06:24.305Z,99369.31
2023-01-19T10:09:37.757Z,99377.09
2023-01-19T10:13:14.663Z,99388.94
2023-01-19T10:16:32.552Z,99386.91
2023-01-19T10:19:42.299Z,99383.69
2023-01-19T10:22:49.355Z,99386.97
2023-01-19T10:25:52.600Z,99403.03
2023-01-19T10:29:03.334Z,99406.69
2023-01-19T10:32:28.346Z,99412.69
2023-01-19T10:35:31.398Z,99404.69
2023-01-19T10:38:35.475Z,99402.63
2023-01-19T10:41:47.088Z,99425.66
2023-01-19T10:44:50.740Z,99414.84
2023-01-19T10:47:55.446Z,99419.94
2023-01-19T10:51:04.908Z,99430.44
2023-01-19T10:54:13.711Z,99429.72
2023-01-19T10:57:28.731Z,99436.00
2023-01-19T11:00:40.995Z,99443.06
2023-01-19T11:03:46.818Z,99435.81
2023-01-19T11:06:49.803Z,99444.94
2023-01-19T11:10:23.985Z,99454.28
2023-01-19T11:13:27.149Z,99470.00
2023-01-19T11:16:35.225Z,99480.88
2023-01-19T11:19:38.090Z,99480.69
2023-01-19T11:22:41.089Z,99480.50
2023-01-19T11:25:47.682Z,99486.03
2023-01-19T11:28:54.885Z,99492.66
2023-01-19T11:32:10.619Z,99484.50
2023-01-19T11:35:37.245Z,99475.56
2023-01-19T11:38:46.031Z,99471.19
2023-01-19T11:41:52.309Z,99474.59
2023-01-19T11:44:58.232Z,99494.31
2023-01-19T11:48:04.880Z,99481.69
2023-01-19T11:51:14.105Z,99490.13
2023-01-19T11:54:28.655Z,99498.47
2023-01-19T11:57:32.214Z,99488.19
2023-01-19T12:01:03.048Z,99478.13
2023-01-19T12:04:26.304Z,99489.81
2023-01-19T12:07:33.146Z,99524.75
2023-01-19T12:10:41.880Z,99557.53
2023-01-19T12:13:46.810Z,99563.00
2023-01-19T12:16:53.181Z,99546.97
2023-01-19T12:20:32.061Z,99554.88
2023-01-19T12:23:47.077Z,99553.50
2023-01-19T12:26:54.596Z,99555.03
2023-01-19T12:29:57.925Z,99569.31
2023-01-19T12:33:29.770Z,99569.53
2023-01-19T12:36:36.792Z,99566.06
2023-01-19T12:39:49.036Z,99552.00
2023-01-19T12:43:05.508Z,99578.19
2023-01-19T12:46:29.430Z,99578.63
2023-01-19T12:49:32.338Z,99582.50
2023-01-19T12:52:51.733Z,99585.19
2023-01-19T12:56:01.954Z,99604.44
2023-01-19T12:59:06.581Z,99615.28
2023-01-19T13:02:18.665Z,99620.81
2023-01-19T13:05:32.519Z,99619.00
2023-01-19T13:08:54.724Z,99629.50
2023-01-19T13:12:23.446Z,99639.28
2023-01-19T13:15:38.408Z,99625.59
2023-01-19T13:19:13.080Z,99632.69
2023-01-19T13:22:51.403Z,99631.19
2023-01-19T13:26:02.828Z,99633.41
2023-01-19T13:29:11.201Z,99645.31
2023-01-19T13:32:18.956Z,99662.41
2023-01-19T13:35:23.092Z,99678.94
2023-01-19T13:38:29.418Z,99684.78
2023-01-19T13:41:38.379Z,99684.75
2023-01-19T13:44:47.276Z,99689.91
2023-01-19T13:47:51.639Z,99700.66
2023-01-19T13:51:06.717Z,99700.56
2023-01-19T13:54:16.640Z,99705.16
2023-01-19T13:57:26.591Z,99695.56
2023-01-19T14:00:31.157Z,99702.41
2023-01-19T14:03:34.952Z,99708.38
2023-01-19T14:06:47.642Z,99705.97
2023-01-19T14:10:11.744Z,99722.00
2023-01-19T14:13:20.758Z,99721.44
2023-01-19T14:16:25.276Z,99728.88
2023-01-19T14:19:28.826Z,99733.13
2023-01-19T14:22:43.894Z,99729.63
2023-01-19T14:25:46.911Z,99746.41
2023-01-19T14:28:49.802Z,99756.06
2023-01-19T14:32:01.873Z,99772.81
2023-01-19T14:35:05.856Z,99791.47
2023-01-19T14:38:14.440Z,99788.41
2023-01-19T14:41:24.661Z,99791.50
2023-01-19T14:44:35.511Z,99795.06
2023-01-19T14:47:43.300Z,99797.69
2023-01-19T14:51:02.516Z,99808.91
2023-01-19T14:54:06.023Z,99816.84
2023-01-19T14:57:13.995Z,99817.66
2023-01-19T15:00:20.972Z,99818.31
2023-01-19T15:03:38.587Z,99824.00
2023-01-19T15:06:46.075Z,99816.59
2023-01-19T15:09:49.156Z,99835.13
2023-01-19T15:12:54.535Z,99838.84
2023-01-19T15:16:23.329Z,99846.25
2023-01-19T15:19:26.095Z,99833.16
2023-01-19T15:22:44.766Z,99838.47
2023-01-19T15:25:47.784Z,99854.75
2023-01-19T15:28:50.813Z,99868.00
2023-01-19T15:31:53.937Z,99867.47
2023-01-19T15:34:56.904Z,99865.31
2023-01-19T15:38:01.795Z,99870.56
2023-01-19T15:41:04.623Z,99880.94
2023-01-19T15:44:10.864Z,99876.25
2023-01-19T15:47:13.605Z,99876.25
2023-01-19T15:50:16.775Z,99877.59
2023-01-19T15:53:24.031Z,99873.63
2023-01-19T15:56:30.289Z,99875.88
2023-01-19T15:59:33.157Z,99889.16
2023-01-19T16:02:37.221Z,99895.28
2023-01-19T16:05:43.799Z,99896.09
2023-01-19T16:08:46.683Z,99898.78
2023-01-19T16:11:49.494Z,99904.75
2023-01-19T16:14:52.311Z,99918.16
2023-01-19T16:17:55.102Z,99917.34
2023-01-19T16:20:57.924Z,99923.16
2023-01-19T16:24:01.048Z,99930.84
2023-01-19T16:27:04.270Z,99939.41
2023-01-19T16:30:07.970Z,99943.88
2023-01-19T16:33:11.824Z,99934.41
2023-01-19T16:36:25.410Z,99942.97
2023-01-19T16:39:28.555Z,99944.00
2023-01-19T16:42:31.449Z,99948.72
2023-01-19T16:45:34.394Z,99941.19
2023-01-19T16:48:37.424Z,99938.56
2023-01-19T16:51:40.874Z,99953.41
2023-01-19T16:54:43.902Z,99949.97
2023-01-19T16:57:46.672Z,99960.50
2023-01-19T17:00:50.023Z,99973.09
2023-01-19T17:03:53.282Z,99983.06
2023-01-19T17:06:56.283Z,99990.44
2023-01-19T17:09:59.163Z,99989.63
2023-01-19T17:13:02.028Z,100004.50
2023-01-19T17:16:06.422Z,100003.34
2023-01-19T17:19:14.445Z,99999.91
2023-01-19T17:22:17.453Z,99994.81
2023-01-19T17:25:20.333Z,100002.53
2023-01-19T17:28:28.373Z,99998.28
2023-01-19T17:31:32.489Z,99987.63
2023-01-19T17:34:35.574Z,99990.25
2023-01-19T17:37:38.576Z,100005.13
2023-01-19T17:40:42.202Z,99991.06
2023-01-19T17:43:47.142Z,99997.44
2023-01-19T17:46:50.103Z,100004.00
2023-01-19T17:49:53.010Z,100004.16
2023-01-19T17:52:55.966Z,100004.97
2023-01-19T17:56:09.728Z,100004.13
2023-01-19T17:59:12.969Z,99997.75
2023-01-19T18:02:16.283Z,100004.38
2023-01-19T18:05:21.006Z,100006.97
2023-01-19T18:08:24.160Z,100002.91
2023-01-19T18:11:28.148Z,100001.81
2023-01-19T18:14:31.166Z,99999.50
2023-01-19T18:17:34.106Z,100001.81
2023-01-19T18:20:40.033Z,100007.69
2023-01-19T18:23:46.234Z,100009.34
2023-01-19T18:26:49.090Z,100006.25
2023-01-19T18:29:52.267Z,100006.41
2023-01-19T18:32:55.321Z,100017.94
2023-01-19T18:35:58.401Z,100025.44
2023-01-19T18:39:02.033Z,100038.03
2023-01-19T18:42:05.328Z,100029.00
2023-01-19T18:45:09.032Z,100034.06
2023-01-19T18:48:12.400Z,100035.19
2023-01-19T18:51:17.165Z,100029.78
2023-01-19T18:54:20.603Z,100030.00
2023-01-19T18:57:23.650Z,100038.88
2023-01-19T19:00:26.727Z,100035.34
2023-01-19T19:03:30.092Z,100033.41
2023-01-19T19:06:34.314Z,100029.19
2023-01-19T19:09:37.444Z,100035.25
2023-01-19T19:12:40.762Z,100034.44
2023-01-19T19:15:44.620Z,100034.59
2023-01-19T19:18:50.662Z,100030.16
2023-01-19T19:21:53.837Z,100036.88
2023-01-19T19:24:56.840Z,100037.50
2023-01-19T19:27:59.914Z,100034.59
2023-01-19T19:31:23.123Z,100039.81
2023-01-19T19:34:26.327Z,100050.75
2023-01-19T19:37:30.396Z,100058.25
2023-01-19T19:40:33.483Z,100057.59
2023-01-19T19:43:37.566Z,100059.56
2023-01-19T19:46:41.763Z,100057.31
2023-01-19T19:49:45.232Z,100050.78
2023-01-19T19:52:48.883Z,100041.44
2023-01-19T19:56:00.373Z,100041.31
2023-01-19T19:59:03.785Z,100042.41
2023-01-19T20:02:07.125Z,100047.16
2023-01-19T20:05:10.374Z,100045.00
2023-01-19T20:08:14.465Z,100043.69
2023-01-19T20:11:28.452Z,100045.13
2023-01-19T20:14:31.258Z,100041.41
2023-01-19T20:17:34.470Z,100042.88
2023-01-19T20:20:38.521Z,100029.31
2023-01-19T20:23:41.765Z,100034.03
2023-01-19T20:26:47.877Z,100048.38
2023-01-19T20:29:58.053Z,100072.59
2023-01-19T20:33:02.118Z,100100.19
2023-01-19T20:36:05.495Z,100105.53
2023-01-19T20:39:11.243Z,100082.19
2023-01-19T20:42:16.636Z,100084.97
2023-01-19T20:45:20.860Z,100092.34
2023-01-19T20:48:23.958Z,100097.44
2023-01-19T20:51:27.271Z,100096.63
2023-01-19T20:54:30.675Z,100112.16
2023-01-19T20:57:33.837Z,100108.63
2023-01-19T21:00:36.842Z,100120.47
2023-01-19T21:03:40.218Z,100130.13
2023-01-19T21:06:43.682Z,100127.69
2023-01-19T21:09:46.538Z,100127.03
2023-01-19T21:12:50.721Z,100130.97
2023-01-19T21:15:53.962Z,100123.09
2023-01-19T21:18:57.048Z,100131.13
2023-01-19T21:22:00.179Z,100121.41
2023-01-19T21:25:03.325Z,100126.81
2023-01-19T21:28:06.398Z,100121.44
2023-01-19T21:31:14.358Z,100139.44
2023-01-19T21:34:17.716Z,100131.44
2023-01-19T21:37:20.561Z,100141.72
2023-01-19T21:40:23.461Z,100145.81
2023-01-19T21:43:26.832Z,100145.84
2023-01-19T21:46:32.310Z,100142.06
2023-01-19T21:49:35.661Z,100140.47
2023-01-19T21:52:39.359Z,100129.81
2023-01-19T21:55:47.395Z,100123.47
2023-01-19T21:58:50.531Z,100113.16
2023-01-19T22:01:55.040Z,100092.56
2023-01-19T22:04:57.983Z,100086.53
2023-01-19T22:08:00.730Z,100080.50
2023-01-19T22:11:09.102Z,100075.91
2023-01-19T22:14:11.913Z,100067.09
2023-01-19T22:17:15.008Z,100063.66
2023-01-19T22:20:18.054Z,100043.09
2023-01-19T22:23:20.868Z,100041.94
2023-01-19T22:26:24.534Z,100042.75
2023-01-19T22:29:27.634Z,100042.75
2023-01-19T22:32:31.770Z,100044.56
2023-01-19T22:35:34.573Z,100041.94
2023-01-19T22:38:39.872Z,100037.03
2023-01-19T22:41:45.038Z,100032.63
2023-01-19T22:44:47.789Z,100027.06
2023-01-19T22:47:50.588Z,100025.47
2023-01-19T22:50:57.086Z,100031.97
2023-01-19T22:54:00.209Z,100047.16
2023-01-19T22:57:03.137Z,100048.28
2023-01-19T23:00:08.838Z,100061.34
2023-01-19T23:03:11.758Z,100064.63
2023-01-19T23:06:17.926Z,100055.00
2023-01-19T23:09:21.074Z,100053.34
2023-01-19T23:12:24.115Z,100063.94
2023-01-19T23:15:26.881Z,100074.25
2023-01-19T23:18:30.680Z,100057.41
2023-01-19T23:21:34.026Z,100069.38
2023-01-19T23:24:36.882Z,100060.72
2023-01-19T23:27:39.652Z,100051.56
2023-01-19T23:30:42.605Z,100046.34
2023-01-19T23:33:45.615Z,100051.91
2023-01-19T23:36:48.416Z,100057.63
2023-01-19T23:39:52.385Z,100057.63
2023-01-19T23:42:55.337Z,100056.31
2023-01-19T23:46:06.674Z,100041.75
2023-01-19T23:49:09.776Z,100054.66
2023-01-19T23:52:12.658Z,100060.72
2023-01-19T23:55:16.877Z,100055.97
2023-01-19T23:58:19.684Z,100047.66
